Tai Harvest — H9ZB — position and weather

sailwx.info

Track history (hours):
 
Tides and Currents Weather Stations Pressure Air Temp Water Temp Dewpoint Dewpoint Depression Visibility Wind Speed Wind Dir Waves Ship Positions

Tai Harvest

Last reported at 2018-Feb-22 12:39 UTC. Time now 2018-Feb-24 04:33 UTC.
Position N 31°42' E 121°09'.

Length 190 m; draft 11 m.

Type: Cargo ship. MMSI: 351134000.

Date/timePositionNaut miles runAvg speedWind from/ knotsBaromVisibWave heightAir tempDewpointWater temp
2018-Feb-22 12:39N 31°42' E 121°09'210.3
2018-Feb-22 12:27N 31°41' E 121°11'510.5
2018-Feb-22 12:00N 31°38' E 121°15'610.7
2018-Feb-22 11:29N 31°33' E 121°20'27 9.5
2018-Feb-22 08:42N 31°19' E 121°45'210.5
2018-Feb-22 08:30N 31°18' E 121°47'610.7
2018-Feb-22 07:54N 31°16' E 121°55'611.9
2018-Feb-22 07:26N 31°15' E 122°01'510.2
2018-Feb-22 06:54N 31°13' E 122°07'4 9.2
2018-Feb-22 06:26N 31°11' E 122°11'511.7
2018-Feb-22 05:58N 31°07' E 122°16'  
2018-Feb-19 01:02N 25°52' E 122°30'1713.1
2018-Feb-18 23:43N 25°35' E 122°27'312.0
2018-Feb-18 23:28N 25°32' E 122°26'611.8
2018-Feb-18 23:00N 25°26' E 122°26'611.5
2018-Feb-18 22:30N 25°21' E 122°25'2711.6
2018-Feb-18 20:13N 24°54' E 122°20'312.8
2018-Feb-18 20:00N 24°52' E 122°20'612.7
2018-Feb-18 19:30N 24°46' E 122°18'613.0
2018-Feb-18 19:00N 24°39' E 122°17'612.9
2018-Feb-18 18:30N 24°33' E 122°16'612.6
2018-Feb-18 18:00N 24°27' E 122°15'612.3
2018-Feb-18 17:30N 24°21' E 122°14'611.9
2018-Feb-18 17:00N 24°15' E 122°13'611.5
2018-Feb-18 16:30N 24°09' E 122°12'812.4
2018-Feb-18 15:51N 24°01' E 122°10'7512.5
2018-Feb-18 09:53N 22°47' E 121°57'  
Track history (hours):
 
Tides and Currents Weather Stations Pressure Air Temp Water Temp Dewpoint Dewpoint Depression Visibility Wind Speed Wind Dir Waves Ship Positions

Tai Harvest

Last reported at 2018-Feb-22 12:39 UTC. Time now 2018-Feb-24 04:33 UTC.
Position N 31°42' E 121°09'.

Length 190 m; draft 11 m.

Type: Cargo ship. MMSI: 351134000.

Date/timePositionNaut miles runAvg speedWind from/ knotsBaromVisibWave heightAir tempDewpointWater temp
2018-Feb-22 12:39N 31°42' E 121°09'210.3
2018-Feb-22 12:27N 31°41' E 121°11'510.5
2018-Feb-22 12:00N 31°38' E 121°15'610.7
2018-Feb-22 11:29N 31°33' E 121°20'27 9.5
2018-Feb-22 08:42N 31°19' E 121°45'210.5
2018-Feb-22 08:30N 31°18' E 121°47'610.7
2018-Feb-22 07:54N 31°16' E 121°55'611.9
2018-Feb-22 07:26N 31°15' E 122°01'510.2
2018-Feb-22 06:54N 31°13' E 122°07'4 9.2
2018-Feb-22 06:26N 31°11' E 122°11'511.7
2018-Feb-22 05:58N 31°07' E 122°16'  
2018-Feb-19 01:02N 25°52' E 122°30'1713.1
2018-Feb-18 23:43N 25°35' E 122°27'312.0
2018-Feb-18 23:28N 25°32' E 122°26'611.8
2018-Feb-18 23:00N 25°26' E 122°26'611.5
2018-Feb-18 22:30N 25°21' E 122°25'2711.6
2018-Feb-18 20:13N 24°54' E 122°20'312.8
2018-Feb-18 20:00N 24°52' E 122°20'612.7
2018-Feb-18 19:30N 24°46' E 122°18'613.0
2018-Feb-18 19:00N 24°39' E 122°17'612.9
2018-Feb-18 18:30N 24°33' E 122°16'612.6
2018-Feb-18 18:00N 24°27' E 122°15'612.3
2018-Feb-18 17:30N 24°21' E 122°14'611.9
2018-Feb-18 17:00N 24°15' E 122°13'611.5
2018-Feb-18 16:30N 24°09' E 122°12'812.4
2018-Feb-18 15:51N 24°01' E 122°10'7512.5
2018-Feb-18 09:53N 22°47' E 121°57'  

Dump ship's entire track history